Time;durP1;ratioP1;P1;durP2;ratioP2;P2;SDS_P1;SDS_P2;PMS_P1;PMS_P2;Temp;Humidity;BMP_temperature;BMP_pressure;BME280_temperature;BME280_humidity;BME280_pressure;Samples;Min_cycle;Max_cycle;Signal;HPM_P1;HPM_P2
2023/05/24 00:00:11;;;;;;;1.37;1.30;;;16.10;99.90;;;;;;5036396;28;20214;-62
2023/05/24 00:02:40;;;;;;;1.50;1.40;;;16.00;99.90;;;;;;5036188;28;20216;-62
2023/05/24 00:05:08;;;;;;;1.55;1.45;;;16.00;99.90;;;;;;5036766;28;20224;-62
2023/05/24 00:07:35;;;;;;;1.20;1.20;;;16.10;99.90;;;;;;5036253;28;20699;-64
2023/05/24 00:10:02;;;;;;;1.80;1.70;;;16.20;99.90;;;;;;5036002;28;20208;-63
2023/05/24 00:12:30;;;;;;;1.30;1.30;;;16.20;99.90;;;;;;5036894;28;20208;-63
2023/05/24 00:14:57;;;;;;;1.60;1.50;;;16.40;99.90;;;;;;5036778;28;20204;-63
2023/05/24 00:17:24;;;;;;;1.70;1.60;;;16.40;99.90;;;;;;5036632;28;20200;-63
2023/05/24 00:19:51;;;;;;;1.60;1.50;;;16.50;99.90;;;;;;5035539;28;20990;-63
2023/05/24 00:22:19;;;;;;;1.60;1.50;;;16.50;99.90;;;;;;5036946;28;20277;-62
2023/05/24 00:24:46;;;;;;;1.52;1.42;;;16.50;99.90;;;;;;5037054;28;20215;-62
2023/05/24 00:27:13;;;;;;;1.65;1.55;;;16.50;99.90;;;;;;5036454;28;20227;-62
2023/05/24 00:29:42;;;;;;;1.60;1.50;;;16.40;99.90;;;;;;5035995;28;20220;-62
2023/05/24 00:32:08;;;;;;;1.80;1.70;;;16.40;99.90;;;;;;5036427;28;20222;-63
2023/05/24 00:34:35;;;;;;;1.60;1.50;;;16.40;99.90;;;;;;5036545;28;20208;-63
2023/05/24 00:37:02;;;;;;;1.65;1.55;;;16.40;99.90;;;;;;5036616;28;20200;-64
2023/05/24 00:39:29;;;;;;;1.60;1.55;;;16.30;99.90;;;;;;5035728;28;20315;-64
2023/05/24 00:41:56;;;;;;;1.80;1.70;;;16.40;99.90;;;;;;5032538;28;20697;-62
2023/05/24 00:44:23;;;;;;;1.67;1.58;;;16.40;99.90;;;;;;5033391;28;20207;-63
2023/05/24 00:46:51;;;;;;;1.77;1.67;;;16.40;99.90;;;;;;5033231;28;20286;-63
2023/05/24 00:49:19;;;;;;;1.73;1.63;;;16.40;99.90;;;;;;5032545;28;20243;-63
2023/05/24 00:51:46;;;;;;;1.60;1.50;;;16.40;99.90;;;;;;5033558;28;20205;-63
2023/05/24 00:54:13;;;;;;;2.33;1.60;;;16.40;99.90;;;;;;5033025;28;20215;-62
2023/05/24 00:56:41;;;;;;;1.48;1.38;;;16.40;99.90;;;;;;5033176;28;20211;-63
2023/05/24 00:59:08;;;;;;;1.70;1.60;;;16.30;99.90;;;;;;5032067;28;20319;-62
2023/05/24 01:01:36;;;;;;;1.30;1.30;;;16.40;99.90;;;;;;5032946;28;20675;-63
2023/05/24 01:04:04;;;;;;;1.42;1.42;;;16.40;99.90;;;;;;5032938;28;20256;-63
2023/05/24 01:06:39;;;;;;;1.40;1.40;;;16.40;99.90;;;;;;5032604;28;20242;-63
2023/05/24 01:09:19;;;;;;;1.30;1.30;;;16.50;99.90;;;;;;5031843;28;20711;-63
2023/05/24 01:11:55;;;;;;;1.42;1.42;;;16.40;99.90;;;;;;5033078;28;20250;-62
2023/05/24 01:14:29;;;;;;;1.33;1.23;;;16.30;99.90;;;;;;5033580;28;20192;-62
2023/05/24 01:17:03;;;;;;;1.20;1.20;;;16.30;99.90;;;;;;5033881;28;20201;-63
2023/05/24 01:19:51;;;;;;;1.42;1.42;;;16.30;99.90;;;;;;5049859;28;20299;-63
2023/05/24 01:22:29;;;;;;;1.40;1.40;;;16.30;99.90;;;;;;5035065;28;20208;-64
2023/05/24 01:25:03;;;;;;;1.65;1.55;;;16.20;99.90;;;;;;5032651;28;20196;-63
2023/05/24 01:27:33;;;;;;;1.38;1.38;;;16.20;99.90;;;;;;5032483;28;20239;-63
2023/05/24 01:30:01;;;;;;;1.25;1.25;;;16.20;99.90;;;;;;5031852;28;20204;-63
2023/05/24 01:32:28;;;;;;;1.40;1.40;;;16.20;99.90;;;;;;5036489;28;20227;-66
2023/05/24 01:34:55;;;;;;;1.40;1.40;;;16.20;99.90;;;;;;5049895;28;20272;-64
2023/05/24 01:37:22;;;;;;;1.70;1.60;;;16.10;99.90;;;;;;5049004;28;20258;-63
2023/05/24 01:39:49;;;;;;;1.70;1.50;;;16.10;99.90;;;;;;5049651;28;20653;-63
2023/05/24 01:42:24;;;;;;;1.40;1.40;;;16.00;99.90;;;;;;5036923;28;20227;-63
2023/05/24 01:45:03;;;;;;;1.55;1.45;;;16.00;99.90;;;;;;5033569;28;20191;-63
2023/05/24 01:47:46;;;;;;;1.50;1.40;;;16.00;99.90;;;;;;5032694;28;20228;-63
2023/05/24 01:50:20;;;;;;;1.63;1.60;;;15.90;99.90;;;;;;5027656;28;20663;-63
2023/05/24 01:52:49;;;;;;;1.38;1.30;;;15.90;99.90;;;;;;5032197;28;20793;-63
2023/05/24 01:55:18;;;;;;;1.63;1.52;;;15.80;99.90;;;;;;5031630;28;20247;-63
2023/05/24 01:57:48;;;;;;;1.05;1.05;;;15.70;99.90;;;;;;5038070;28;20204;-63
2023/05/24 02:00:19;;;;;;;1.40;1.30;;;15.50;99.90;;;;;;5037986;28;20189;-63
2023/05/24 02:02:46;;;;;;;1.20;1.20;;;15.50;99.90;;;;;;5033119;28;20205;-62
2023/05/24 02:05:13;;;;;;;1.45;1.40;;;15.50;99.90;;;;;;5032351;28;20687;-63
2023/05/24 02:07:40;;;;;;;1.33;1.33;;;15.40;99.90;;;;;;5032108;28;20237;-63
2023/05/24 02:10:08;;;;;;;1.50;1.40;;;15.30;99.90;;;;;;5032199;28;20224;-63
2023/05/24 02:12:35;;;;;;;1.10;1.10;;;15.20;99.90;;;;;;5031703;28;20208;-63
2023/05/24 02:15:01;;;;;;;1.20;1.20;;;15.30;99.90;;;;;;5032532;28;20681;-63
2023/05/24 02:17:31;;;;;;;1.20;1.20;;;15.20;99.90;;;;;;5031930;28;20205;-63
2023/05/24 02:19:58;;;;;;;1.30;1.30;;;15.20;99.90;;;;;;5031092;28;20585;-62
2023/05/24 02:22:25;;;;;;;1.20;1.20;;;15.10;99.90;;;;;;5031413;28;20214;-62
2023/05/24 02:24:52;;;;;;;1.42;1.33;;;14.90;99.90;;;;;;5031522;28;20682;-61
2023/05/24 02:27:19;;;;;;;1.15;1.15;;;14.90;99.90;;;;;;5031311;28;20258;-62
2023/05/24 02:29:46;;;;;;;1.20;1.20;;;14.80;99.90;;;;;;5030598;28;20911;-63
2023/05/24 02:32:13;;;;;;;1.55;1.48;;;14.80;99.90;;;;;;5031307;28;20299;-63
2023/05/24 02:34:42;;;;;;;1.10;1.10;;;14.80;99.90;;;;;;5031468;28;20212;-62
2023/05/24 02:37:12;;;;;;;1.15;1.15;;;14.80;99.90;;;;;;5031304;28;20215;-62
2023/05/24 02:39:40;;;;;;;1.10;1.10;;;14.70;99.90;;;;;;5031028;28;20228;-62
2023/05/24 02:42:07;;;;;;;1.45;1.40;;;14.70;99.90;;;;;;5032222;28;20200;-63
2023/05/24 02:44:34;;;;;;;1.30;1.20;;;14.70;99.90;;;;;;5032160;28;20208;-62
2023/05/24 02:47:01;;;;;;;1.20;1.20;;;14.70;99.90;;;;;;5037758;28;20228;-63
2023/05/24 02:49:27;;;;;;;1.27;1.27;;;14.70;99.90;;;;;;5031318;28;20370;-63
2023/05/24 02:51:56;;;;;;;1.27;1.20;;;14.70;99.90;;;;;;5031719;28;20291;-63
2023/05/24 02:54:23;;;;;;;1.40;1.30;;;14.60;99.90;;;;;;5031955;28;20204;-62
2023/05/24 02:56:49;;;;;;;1.42;1.33;;;14.60;99.90;;;;;;5031583;28;20745;-62
2023/05/24 02:59:16;;;;;;;1.40;1.30;;;14.60;99.90;;;;;;5030337;28;20320;-62
2023/05/24 03:01:43;;;;;;;1.30;1.20;;;14.50;99.90;;;;;;5031063;28;20200;-63
2023/05/24 03:04:10;;;;;;;1.33;1.23;;;14.50;99.90;;;;;;5030559;28;20839;-62
2023/05/24 03:06:37;;;;;;;1.13;1.13;;;14.40;99.90;;;;;;5030408;28;20632;-62
2023/05/24 03:09:05;;;;;;;1.10;1.10;;;14.40;99.90;;;;;;5030178;28;20228;-63
2023/05/24 03:11:32;;;;;;;1.10;1.10;;;14.50;99.90;;;;;;5031010;28;20216;-62
2023/05/24 03:13:59;;;;;;;1.10;1.10;;;14.50;99.90;;;;;;5031122;28;20211;-63
2023/05/24 03:16:25;;;;;;;1.10;1.10;;;14.50;99.90;;;;;;5030907;28;20291;-62
2023/05/24 03:18:54;;;;;;;1.00;1.00;;;14.60;99.90;;;;;;5034148;28;20236;-62
2023/05/24 03:21:22;;;;;;;1.10;1.10;;;14.80;99.90;;;;;;5037127;28;20212;-63
2023/05/24 03:23:49;;;;;;;1.30;1.20;;;14.80;99.90;;;;;;5030484;28;20208;-64
2023/05/24 03:26:17;;;;;;;1.13;1.13;;;14.80;99.90;;;;;;5030692;28;20226;-62
2023/05/24 03:28:44;;;;;;;1.40;1.30;;;14.70;99.90;;;;;;5030417;28;20236;-63
2023/05/24 03:31:11;;;;;;;1.65;1.40;;;14.60;99.90;;;;;;5030076;28;20208;-63
2023/05/24 03:33:38;;;;;;;1.15;1.15;;;14.70;99.90;;;;;;5030623;28;20286;-62
2023/05/24 03:36:06;;;;;;;1.10;1.10;;;14.70;99.90;;;;;;5030141;28;20205;-61
2023/05/24 03:38:33;;;;;;;1.10;1.10;;;14.70;99.90;;;;;;5030498;28;20227;-64
2023/05/24 03:41:00;;;;;;;1.27;1.27;;;14.60;99.90;;;;;;5029492;28;20205;-62
2023/05/24 03:43:28;;;;;;;1.20;1.20;;;14.60;99.90;;;;;;5030503;28;20248;-63
2023/05/24 03:45:55;;;;;;;1.65;1.55;;;14.60;99.90;;;;;;5030018;28;20691;-63
2023/05/24 03:48:22;;;;;;;1.35;1.30;;;14.60;99.90;;;;;;5029987;28;20243;-63
2023/05/24 03:50:48;;;;;;;1.20;1.13;;;14.60;99.90;;;;;;5029941;28;20723;-62
2023/05/24 03:53:15;;;;;;;1.40;1.40;;;14.60;99.90;;;;;;5031182;28;20211;-62
2023/05/24 03:55:42;;;;;;;1.63;1.17;;;14.70;99.90;;;;;;5030997;28;20208;-63
2023/05/24 03:58:09;;;;;;;1.30;1.30;;;14.70;99.90;;;;;;5031172;28;20311;-62
2023/05/24 04:00:37;;;;;;;1.27;1.27;;;14.70;99.90;;;;;;5029854;28;20201;-63
2023/05/24 04:03:05;;;;;;;1.50;1.40;;;14.70;99.90;;;;;;5030141;28;20205;-63
2023/05/24 04:05:32;;;;;;;1.58;1.48;;;14.70;99.90;;;;;;5029803;28;20204;-62
2023/05/24 04:07:59;;;;;;;1.10;1.10;;;14.60;99.90;;;;;;5032857;28;20327;-64
2023/05/24 04:10:26;;;;;;;1.20;1.20;;;14.60;99.90;;;;;;5039203;28;20209;-62
2023/05/24 04:12:53;;;;;;;1.30;1.30;;;14.60;99.90;;;;;;5030694;28;20215;-61
2023/05/24 04:15:20;;;;;;;1.30;1.20;;;14.60;99.90;;;;;;5030783;28;20296;-62
2023/05/24 04:17:53;;;;;;;1.30;1.20;;;14.60;99.90;;;;;;5033980;28;20205;-61
2023/05/24 04:20:21;;;;;;;1.45;1.38;;;14.60;99.90;;;;;;5033713;28;20286;-62
2023/05/24 04:22:48;;;;;;;1.10;1.10;;;14.70;99.90;;;;;;5033808;28;20220;-62
2023/05/24 04:25:15;;;;;;;1.60;1.20;;;14.70;99.90;;;;;;5034265;28;20614;-63
2023/05/24 04:27:43;;;;;;;1.33;1.33;;;14.70;99.90;;;;;;5033485;28;20725;-62
2023/05/24 04:30:11;;;;;;;1.27;1.27;;;14.70;99.90;;;;;;5033490;28;20239;-63
2023/05/24 04:32:39;;;;;;;1.07;1.07;;;14.70;99.90;;;;;;5034486;28;20211;-63
2023/05/24 04:35:08;;;;;;;1.42;1.33;;;14.80;99.90;;;;;;5034217;28;20293;-63
2023/05/24 04:37:35;;;;;;;1.35;1.35;;;14.70;99.90;;;;;;5033744;28;20196;-63
2023/05/24 04:40:04;;;;;;;1.33;1.17;;;14.70;99.90;;;;;;5032718;28;20218;-63
2023/05/24 04:42:31;;;;;;;1.63;1.53;;;14.70;99.90;;;;;;5033855;28;20625;-63
2023/05/24 04:44:58;;;;;;;1.60;1.42;;;14.70;99.90;;;;;;5033400;28;20211;-62
2023/05/24 04:47:25;;;;;;;1.38;1.27;;;14.60;99.90;;;;;;5033155;28;20291;-63
2023/05/24 04:49:52;;;;;;;1.65;1.55;;;14.50;99.90;;;;;;5032456;28;20229;-62
2023/05/24 04:52:21;;;;;;;1.33;1.30;;;14.50;99.90;;;;;;5033865;28;20220;-62
2023/05/24 04:54:49;;;;;;;1.70;1.60;;;14.50;99.90;;;;;;5034344;28;20291;-62
2023/05/24 04:57:16;;;;;;;1.52;1.35;;;14.50;99.90;;;;;;5033494;28;20209;-62
2023/05/24 04:59:43;;;;;;;1.58;1.48;;;14.50;99.90;;;;;;5032291;28;20225;-62
2023/05/24 05:02:10;;;;;;;1.52;1.42;;;14.60;99.90;;;;;;5032956;28;20215;-62
2023/05/24 05:04:37;;;;;;;1.73;1.63;;;14.50;99.90;;;;;;5033358;28;20209;-63
2023/05/24 05:07:04;;;;;;;1.70;1.60;;;14.40;99.90;;;;;;5033197;28;20254;-62
2023/05/24 05:09:32;;;;;;;1.60;1.50;;;14.40;99.90;;;;;;5032229;28;20278;-62
2023/05/24 05:11:59;;;;;;;1.60;1.50;;;14.40;99.90;;;;;;5033400;28;20209;-62
2023/05/24 05:14:26;;;;;;;1.80;1.70;;;14.30;99.90;;;;;;5033129;28;20608;-61
2023/05/24 05:16:53;;;;;;;1.60;1.50;;;14.30;99.90;;;;;;5033142;28;20218;-62
2023/05/24 05:19:20;;;;;;;1.83;1.50;;;14.20;99.90;;;;;;5032476;28;20278;-61
2023/05/24 05:21:46;;;;;;;1.57;1.40;;;14.20;99.90;;;;;;5036245;28;20219;-61
2023/05/24 05:24:15;;;;;;;2.10;1.90;;;14.20;99.90;;;;;;5035629;28;20263;-62
2023/05/24 05:26:43;;;;;;;2.05;1.88;;;14.20;99.90;;;;;;5032529;28;20212;-61
2023/05/24 05:29:10;;;;;;;2.58;1.88;;;14.20;99.90;;;;;;5031855;28;20307;-61
2023/05/24 05:31:38;;;;;;;2.22;1.60;;;14.30;99.90;;;;;;5033055;28;20223;-61
2023/05/24 05:34:08;;;;;;;1.85;1.52;;;14.30;99.90;;;;;;5032630;28;20503;-62
2023/05/24 05:36:39;;;;;;;1.60;1.50;;;14.30;99.90;;;;;;5036835;28;20209;-62
2023/05/24 05:39:08;;;;;;;1.67;1.58;;;14.40;99.90;;;;;;5034912;28;20703;-62
2023/05/24 05:41:36;;;;;;;1.33;1.23;;;14.40;99.90;;;;;;5032848;28;20217;-63
2023/05/24 05:44:05;;;;;;;1.67;1.40;;;14.50;99.90;;;;;;5031330;28;20242;-62
2023/05/24 05:46:32;;;;;;;1.75;1.63;;;14.50;99.90;;;;;;5032679;28;20213;-62
2023/05/24 05:48:59;;;;;;;2.13;1.92;;;14.50;99.90;;;;;;5032198;28;20236;-62
2023/05/24 05:51:25;;;;;;;1.70;1.60;;;14.50;99.90;;;;;;5032402;28;20205;-63
2023/05/24 05:53:52;;;;;;;1.60;1.50;;;14.60;99.90;;;;;;5032287;28;20539;-62
2023/05/24 05:56:19;;;;;;;1.50;1.40;;;14.50;99.90;;;;;;5032387;28;20547;-63
2023/05/24 05:58:46;;;;;;;2.08;1.88;;;14.50;99.90;;;;;;5033455;28;20659;-62
2023/05/24 06:01:15;;;;;;;1.60;1.50;;;14.70;99.90;;;;;;5038367;28;20211;-62
2023/05/24 06:03:42;;;;;;;2.83;1.60;;;14.70;99.90;;;;;;5041946;28;20227;-62
2023/05/24 06:06:09;;;;;;;2.22;1.80;;;14.80;99.90;;;;;;5041683;28;20205;-62
2023/05/24 06:08:36;;;;;;;1.83;1.73;;;14.80;99.90;;;;;;5040594;28;20307;-62
2023/05/24 06:11:03;;;;;;;1.70;1.60;;;14.80;99.90;;;;;;5037505;28;20212;-63
2023/05/24 06:13:30;;;;;;;1.48;1.38;;;14.80;99.90;;;;;;5032350;28;20209;-62
2023/05/24 06:15:57;;;;;;;1.75;1.65;;;14.80;99.90;;;;;;5032474;28;20212;-62
2023/05/24 06:18:26;;;;;;;1.77;1.67;;;14.80;99.90;;;;;;5031866;28;20225;-62
2023/05/24 06:20:53;;;;;;;1.70;1.60;;;14.90;99.90;;;;;;5031518;28;20216;-62
2023/05/24 06:23:20;;;;;;;1.60;1.50;;;14.80;99.90;;;;;;5032427;28;20753;-62
2023/05/24 06:25:47;;;;;;;2.58;1.63;;;14.70;99.90;;;;;;5034901;28;20215;-62
2023/05/24 06:28:14;;;;;;;1.97;1.73;;;14.70;99.90;;;;;;5031527;28;20228;-63
2023/05/24 06:30:40;;;;;;;1.60;1.50;;;14.60;99.90;;;;;;5031357;28;20223;-63
2023/05/24 06:33:07;;;;;;;1.55;1.45;;;14.60;99.90;;;;;;5032119;28;20205;-62
2023/05/24 06:35:35;;;;;;;2.10;1.80;;;14.50;99.90;;;;;;5032045;28;20215;-62
2023/05/24 06:38:02;;;;;;;1.83;1.73;;;14.60;99.90;;;;;;5030821;28;20220;-63
2023/05/24 06:40:29;;;;;;;1.90;1.80;;;14.60;99.90;;;;;;5030811;28;20212;-63
2023/05/24 06:42:57;;;;;;;1.80;1.70;;;14.70;99.90;;;;;;5031750;28;20211;-62
2023/05/24 06:45:24;;;;;;;1.60;1.50;;;14.50;99.90;;;;;;5032322;28;20254;-62
2023/05/24 06:47:51;;;;;;;1.70;1.60;;;14.60;99.90;;;;;;5033013;28;20585;-62
2023/05/24 06:50:18;;;;;;;2.08;1.77;;;14.70;99.90;;;;;;5032859;28;20713;-63
2023/05/24 06:52:46;;;;;;;1.70;1.60;;;14.70;99.90;;;;;;5032757;28;20295;-62
2023/05/24 06:55:13;;;;;;;1.70;1.60;;;14.80;99.90;;;;;;5032679;28;20284;-62
2023/05/24 06:57:40;;;;;;;1.60;1.50;;;14.80;99.90;;;;;;5031895;28;20547;-62
2023/05/24 07:00:10;;;;;;;2.13;1.87;;;14.90;99.90;;;;;;5031136;28;20214;-62
2023/05/24 07:02:37;;;;;;;2.42;1.70;;;14.90;99.90;;;;;;5031475;28;20243;-61
2023/05/24 07:05:05;;;;;;;1.97;1.80;;;14.90;99.90;;;;;;5031041;28;20525;-62
2023/05/24 07:07:32;;;;;;;1.88;1.73;;;14.90;99.90;;;;;;5031087;28;20251;-64
2023/05/24 07:10:00;;;;;;;2.37;1.67;;;14.80;99.90;;;;;;5030017;28;20228;-63
2023/05/24 07:12:27;;;;;;;1.90;1.80;;;15.00;99.90;;;;;;5031292;28;20686;-62
2023/05/24 07:14:55;;;;;;;1.73;1.60;;;14.80;99.90;;;;;;5036302;28;20215;-63
2023/05/24 07:17:21;;;;;;;1.60;1.50;;;14.80;99.90;;;;;;5035254;28;20303;-61
2023/05/24 07:19:48;;;;;;;2.17;1.58;;;14.80;99.90;;;;;;5030584;28;20231;-62
2023/05/24 07:22:15;;;;;;;1.77;1.60;;;14.90;99.90;;;;;;5030900;28;20219;-61
2023/05/24 07:24:42;;;;;;;1.77;1.63;;;15.00;99.90;;;;;;5036545;28;20284;-62
2023/05/24 07:27:10;;;;;;;1.60;1.50;;;15.10;99.90;;;;;;5034896;28;20303;-62
2023/05/24 07:29:37;;;;;;;2.10;1.90;;;15.10;99.90;;;;;;5030939;28;20319;-63
2023/05/24 07:32:05;;;;;;;1.70;1.50;;;15.10;99.90;;;;;;5031619;28;20207;-63
2023/05/24 07:34:31;;;;;;;1.55;1.45;;;15.10;99.90;;;;;;5034031;28;20208;-62
2023/05/24 07:36:59;;;;;;;1.80;1.70;;;15.20;99.90;;;;;;5033083;28;20211;-62
2023/05/24 07:39:26;;;;;;;1.60;1.50;;;15.20;99.90;;;;;;5030448;28;20256;-63
2023/05/24 07:41:53;;;;;;;2.20;2.00;;;15.30;99.90;;;;;;5031045;28;20212;-63
2023/05/24 07:44:22;;;;;;;1.75;1.60;;;15.20;99.90;;;;;;5030650;28;20683;-63
2023/05/24 07:46:49;;;;;;;2.00;1.80;;;15.10;99.90;;;;;;5030694;28;20593;-62
2023/05/24 07:49:16;;;;;;;1.75;1.60;;;14.90;99.90;;;;;;5030065;28;20647;-62
2023/05/24 07:51:43;;;;;;;2.10;2.00;;;14.90;99.90;;;;;;5035323;28;20577;-62
2023/05/24 07:54:10;;;;;;;3.05;2.13;;;14.90;99.90;;;;;;5034734;28;20248;-62
2023/05/24 07:56:37;;;;;;;2.25;2.08;;;14.90;99.90;;;;;;5034274;28;20218;-64
2023/05/24 07:59:04;;;;;;;2.42;2.33;;;14.90;99.90;;;;;;5034355;28;20231;-62
2023/05/24 08:01:34;;;;;;;2.00;1.88;;;14.80;99.90;;;;;;5035058;28;20633;-61
2023/05/24 08:04:02;;;;;;;2.30;1.90;;;14.70;99.90;;;;;;5035005;28;20216;-62
2023/05/24 08:06:29;;;;;;;3.15;1.85;;;14.70;99.90;;;;;;5034801;28;20211;-62
2023/05/24 08:08:56;;;;;;;1.80;1.70;;;14.80;99.90;;;;;;5034285;28;20228;-63
2023/05/24 08:11:23;;;;;;;1.83;1.73;;;14.80;99.90;;;;;;5033517;28;20295;-63
2023/05/24 08:13:50;;;;;;;1.60;1.50;;;14.70;99.90;;;;;;5033868;28;20667;-62
2023/05/24 08:16:17;;;;;;;2.20;2.00;;;14.80;99.90;;;;;;5034007;28;20730;-62
2023/05/24 08:18:45;;;;;;;1.77;1.67;;;14.90;99.90;;;;;;5033986;28;20335;-62
2023/05/24 08:21:12;;;;;;;2.40;2.20;;;14.90;99.90;;;;;;5033737;28;20609;-62
2023/05/24 08:23:38;;;;;;;1.75;1.65;;;14.90;99.90;;;;;;5033834;28;20209;-62
2023/05/24 08:26:05;;;;;;;2.15;1.90;;;15.00;99.90;;;;;;5033858;28;20201;-63
2023/05/24 08:28:32;;;;;;;1.83;1.70;;;14.90;99.90;;;;;;5033586;28;20228;-62
2023/05/24 08:30:59;;;;;;;1.80;1.70;;;15.00;99.90;;;;;;5032751;28;20204;-62
2023/05/24 08:33:27;;;;;;;2.45;2.03;;;15.20;99.90;;;;;;5033468;28;20666;-62
2023/05/24 08:35:56;;;;;;;1.83;1.70;;;15.30;99.90;;;;;;5033644;28;20211;-62
2023/05/24 08:38:22;;;;;;;1.80;1.70;;;15.40;99.90;;;;;;5033299;28;20274;-61
2023/05/24 08:40:49;;;;;;;2.35;2.15;;;15.50;99.90;;;;;;5033999;28;20205;-63
2023/05/24 08:43:17;;;;;;;1.75;1.65;;;15.50;99.90;;;;;;5034860;28;20211;-61
2023/05/24 08:45:45;;;;;;;2.07;1.90;;;15.60;99.90;;;;;;5033259;28;20209;-62
2023/05/24 08:48:12;;;;;;;1.83;1.73;;;15.60;99.90;;;;;;5033258;28;20241;-62
2023/05/24 08:50:39;;;;;;;2.13;1.97;;;15.70;99.90;;;;;;5033136;28;20214;-63
2023/05/24 08:53:10;;;;;;;1.70;1.60;;;15.70;99.90;;;;;;5033769;28;20387;-62
2023/05/24 08:55:37;;;;;;;2.13;1.90;;;15.90;99.90;;;;;;5033488;28;20543;-62
2023/05/24 08:58:06;;;;;;;2.35;2.15;;;16.00;99.90;;;;;;5033515;28;20224;-62
2023/05/24 09:00:32;;;;;;;2.00;1.80;;;16.20;99.90;;;;;;5032632;28;20706;-61
2023/05/24 09:03:01;;;;;;;5.68;2.65;;;16.40;99.90;;;;;;5032736;28;20204;-63
2023/05/24 09:05:30;;;;;;;1.70;1.60;;;16.60;99.90;;;;;;5033329;28;20201;-62
2023/05/24 09:07:58;;;;;;;3.23;1.83;;;16.70;99.90;;;;;;5033042;28;20726;-62
2023/05/24 09:10:28;;;;;;;1.83;1.73;;;17.00;99.90;;;;;;5032564;28;20228;-63
2023/05/24 09:12:57;;;;;;;1.88;1.77;;;16.90;99.90;;;;;;5033367;28;20215;-63
2023/05/24 09:15:24;;;;;;;2.27;2.03;;;16.90;99.90;;;;;;5033422;28;20212;-63
2023/05/24 09:17:51;;;;;;;2.00;1.80;;;16.80;99.90;;;;;;5034535;28;20254;-63
2023/05/24 09:20:19;;;;;;;2.33;2.13;;;16.90;99.90;;;;;;5033493;28;20247;-62
2023/05/24 09:22:50;;;;;;;2.05;1.73;;;16.80;99.90;;;;;;5034397;28;20263;-62
2023/05/24 09:25:20;;;;;;;1.92;1.80;;;16.60;99.90;;;;;;5032995;28;20212;-63
2023/05/24 09:27:51;;;;;;;1.90;1.70;;;16.60;99.90;;;;;;5037718;28;20208;-63
2023/05/24 09:30:18;;;;;;;2.22;1.90;;;16.50;99.90;;;;;;5039659;28;20613;-62
2023/05/24 09:32:56;;;;;;;2.47;2.27;;;16.40;99.90;;;;;;5034426;28;20213;-63
2023/05/24 09:35:22;;;;;;;1.90;1.80;;;16.20;99.90;;;;;;5032896;28;20692;-63
2023/05/24 09:37:49;;;;;;;2.03;1.85;;;16.10;99.90;;;;;;5032377;28;20212;-63
2023/05/24 09:40:20;;;;;;;2.25;2.05;;;16.00;99.90;;;;;;5031646;28;20283;-62
2023/05/24 09:42:50;;;;;;;2.60;1.77;;;16.10;99.90;;;;;;5032463;28;20231;-62
2023/05/24 09:45:18;;;;;;;2.37;2.13;;;16.10;99.90;;;;;;5032415;28;20304;-62
2023/05/24 09:47:45;;;;;;;2.25;1.77;;;15.90;99.90;;;;;;5032875;28;20218;-62
2023/05/24 09:50:13;;;;;;;2.22;2.00;;;15.90;99.90;;;;;;5031757;28;20227;-63
2023/05/24 09:52:40;;;;;;;2.30;2.10;;;16.00;99.90;;;;;;5032388;28;20350;-62
2023/05/24 09:55:14;;;;;;;1.90;1.80;;;16.10;99.90;;;;;;5032465;28;20605;-62
2023/05/24 09:57:41;;;;;;;2.42;1.83;;;16.10;99.90;;;;;;5033337;28;20535;-62
2023/05/24 10:00:16;;;;;;;3.28;2.00;;;16.40;99.90;;;;;;5031817;28;20197;-63
2023/05/24 10:02:45;;;;;;;1.75;1.65;;;16.30;99.90;;;;;;5032082;28;20258;-62
2023/05/24 10:05:12;;;;;;;1.80;1.70;;;16.40;99.90;;;;;;5032075;28;20671;-63
2023/05/24 10:07:41;;;;;;;2.33;2.23;;;16.50;99.90;;;;;;5031962;28;20207;-63
2023/05/24 10:10:10;;;;;;;2.17;2.00;;;16.50;99.90;;;;;;5031513;28;20248;-62
2023/05/24 10:12:41;;;;;;;1.85;1.73;;;16.50;99.90;;;;;;5031688;28;20208;-64
2023/05/24 10:15:11;;;;;;;2.10;1.90;;;16.70;99.90;;;;;;5031973;28;20208;-62
2023/05/24 10:17:37;;;;;;;1.95;1.85;;;17.10;99.90;;;;;;5031968;28;20298;-63
2023/05/24 10:20:07;;;;;;;1.60;1.50;;;17.30;99.90;;;;;;5031460;28;20220;-63
2023/05/24 10:22:40;;;;;;;1.95;1.75;;;17.30;99.90;;;;;;5032056;28;20597;-62
2023/05/24 10:25:11;;;;;;;3.00;1.83;;;17.50;99.90;;;;;;5032157;28;20209;-62
2023/05/24 10:27:40;;;;;;;2.75;1.75;;;17.50;99.90;;;;;;5031718;28;20259;-62
2023/05/24 10:30:13;;;;;;;1.58;1.48;;;17.50;99.90;;;;;;5030852;28;20602;-63
2023/05/24 10:32:42;;;;;;;2.10;1.90;;;17.40;99.90;;;;;;5031538;28;20219;-64
2023/05/24 10:35:13;;;;;;;2.28;2.08;;;17.20;99.90;;;;;;5031497;28;20204;-62
2023/05/24 10:37:41;;;;;;;1.98;1.88;;;17.20;99.90;;;;;;5031241;28;20215;-63
2023/05/24 10:40:16;;;;;;;1.90;1.80;;;17.20;99.90;;;;;;5030780;28;20635;-63
2023/05/24 10:42:43;;;;;;;1.93;1.73;;;17.10;99.90;;;;;;5031215;28;20208;-63
2023/05/24 10:45:34;;;;;;;1.83;1.73;;;17.20;99.90;;;;;;5031195;28;20200;-63
2023/05/24 10:48:07;;;;;;;2.00;1.77;;;17.10;99.90;;;;;;5031049;28;20319;-62
2023/05/24 10:50:36;;;;;;;1.63;1.52;;;17.10;99.90;;;;;;5030490;28;20675;-63
2023/05/24 10:53:13;;;;;;;1.95;1.75;;;16.90;99.90;;;;;;5031016;28;20212;-62
2023/05/24 10:55:54;;;;;;;2.38;2.05;;;16.90;99.90;;;;;;5031041;28;20208;-63
2023/05/24 10:58:23;;;;;;;3.35;2.13;;;16.70;99.90;;;;;;5030934;28;20715;-63
2023/05/24 11:00:52;;;;;;;2.10;1.90;;;16.50;99.90;;;;;;5030374;28;20200;-63
2023/05/24 11:03:22;;;;;;;1.92;1.73;;;16.60;99.90;;;;;;5030981;28;20213;-63
2023/05/24 11:05:53;;;;;;;1.80;1.70;;;16.60;99.90;;;;;;5031403;28;20667;-63
2023/05/24 11:08:29;;;;;;;2.05;1.85;;;16.60;99.90;;;;;;5031212;28;20229;-63
2023/05/24 11:11:04;;;;;;;1.95;1.75;;;16.60;99.90;;;;;;5030666;28;20224;-63
2023/05/24 11:13:32;;;;;;;1.67;1.58;;;16.80;99.90;;;;;;5031214;28;20215;-62
2023/05/24 11:16:00;;;;;;;1.70;1.60;;;16.90;99.90;;;;;;5031527;28;20204;-62
2023/05/24 11:18:27;;;;;;;2.20;1.60;;;17.20;99.90;;;;;;5031518;28;20282;-63
2023/05/24 11:20:56;;;;;;;2.15;1.95;;;17.60;99.90;;;;;;5030341;28;20211;-62
2023/05/24 11:23:23;;;;;;;1.20;1.20;;;18.00;99.90;;;;;;5030818;28;20591;-62
2023/05/24 11:25:50;;;;;;;1.55;1.45;;;18.40;99.90;;;;;;5030609;28;20204;-63
2023/05/24 11:28:17;;;;;;;1.75;1.65;;;18.70;99.90;;;;;;5031094;28;20299;-62
2023/05/24 11:30:46;;;;;;;1.75;1.65;;;18.80;99.90;;;;;;5037355;28;20224;-63
2023/05/24 11:33:17;;;;;;;1.50;1.40;;;18.80;99.90;;;;;;5037870;28;20386;-63
2023/05/24 11:35:44;;;;;;;1.92;1.35;;;19.00;99.90;;;;;;5031248;28;20208;-62
2023/05/24 11:38:14;;;;;;;1.70;1.60;;;19.00;99.90;;;;;;5030103;28;20703;-62
2023/05/24 11:40:44;;;;;;;1.67;1.30;;;19.00;99.90;;;;;;5029621;28;20586;-62
2023/05/24 11:43:13;;;;;;;1.60;1.50;;;18.80;99.90;;;;;;5030803;28;20201;-62
2023/05/24 11:45:42;;;;;;;1.90;1.73;;;18.70;99.90;;;;;;5031277;28;20625;-62
2023/05/24 11:48:10;;;;;;;2.05;1.60;;;18.60;99.90;;;;;;5030247;28;20695;-62
2023/05/24 11:50:40;;;;;;;1.60;1.50;;;18.70;99.90;;;;;;5029888;28;20659;-62
2023/05/24 11:53:10;;;;;;;1.23;1.23;;;18.90;99.90;;;;;;5030610;28;20750;-62
2023/05/24 11:55:39;;;;;;;1.70;1.60;;;19.00;99.90;;;;;;5030750;28;20276;-62
2023/05/24 11:58:14;;;;;;;1.35;1.25;;;19.10;99.90;;;;;;5030671;28;20703;-62
2023/05/24 12:00:42;;;;;;;2.17;1.50;;;19.00;99.90;;;;;;5029666;28;20204;-62
2023/05/24 12:03:09;;;;;;;1.55;1.45;;;19.10;99.90;;;;;;5030466;28;20582;-63
2023/05/24 12:05:37;;;;;;;1.67;1.58;;;19.20;99.90;;;;;;5030658;28;20204;-62
2023/05/24 12:08:05;;;;;;;1.88;1.60;;;19.10;99.90;;;;;;5030307;28;20933;-62
2023/05/24 12:10:34;;;;;;;2.40;1.73;;;19.20;99.90;;;;;;5030133;28;20323;-64
2023/05/24 12:13:03;;;;;;;2.28;1.80;;;19.20;99.90;;;;;;5030937;28;20209;-64
2023/05/24 12:15:30;;;;;;;1.70;1.60;;;19.10;99.90;;;;;;5031067;28;20307;-62
2023/05/24 12:17:57;;;;;;;1.67;1.58;;;19.20;99.90;;;;;;5032663;28;20256;-62
2023/05/24 12:20:27;;;;;;;2.90;1.77;;;19.30;99.90;;;;;;5039350;28;20217;-63
2023/05/24 12:22:55;;;;;;;1.73;1.63;;;19.40;99.90;;;;;;5039782;28;20645;-62
2023/05/24 12:25:25;;;;;;;2.05;1.80;;;19.30;99.90;;;;;;5032859;28;20597;-62
2023/05/24 12:27:54;;;;;;;1.75;1.65;;;19.40;99.90;;;;;;5030368;28;20238;-62
2023/05/24 12:30:24;;;;;;;1.60;1.50;;;19.30;99.90;;;;;;5033600;28;20217;-62
2023/05/24 12:32:53;;;;;;;2.40;2.15;;;19.20;99.90;;;;;;5033393;28;20205;-62
2023/05/24 12:35:20;;;;;;;1.88;1.77;;;19.30;99.90;;;;;;5034017;28;20691;-62
2023/05/24 12:37:48;;;;;;;2.63;1.75;;;19.30;99.90;;;;;;5036704;28;20299;-62
2023/05/24 12:40:19;;;;;;;1.80;1.70;;;19.40;99.90;;;;;;5039057;28;20209;-62
2023/05/24 12:42:48;;;;;;;1.90;1.80;;;19.30;99.90;;;;;;5037999;28;20211;-63
2023/05/24 12:45:21;;;;;;;1.70;1.60;;;19.30;99.90;;;;;;5042639;28;20561;-64
2023/05/24 12:47:50;;;;;;;1.60;1.50;;;19.20;99.90;;;;;;5042140;28;20220;-63
2023/05/24 12:50:18;;;;;;;1.92;1.73;;;19.20;99.90;;;;;;5040637;28;20236;-62
2023/05/24 12:52:46;;;;;;;1.95;1.75;;;19.30;99.90;;;;;;5045594;28;20208;-62